createdAt,value
2022-11-08T00:00:01.489Z,30.88
2022-11-08T00:02:28.669Z,27.67
2022-11-08T00:04:55.836Z,29.58
2022-11-08T00:07:41.133Z,26.25
2022-11-08T00:10:27.104Z,31.27
2022-11-08T00:13:12.810Z,24.40
2022-11-08T00:15:39.791Z,24.63
2022-11-08T00:18:07.932Z,23.70
2022-11-08T00:20:35.421Z,26.58
2022-11-08T00:23:03.964Z,27.75
2022-11-08T00:25:31.113Z,29.75
2022-11-08T00:27:58.104Z,37.10
2022-11-08T00:30:25.096Z,41.65
2022-11-08T00:32:52.110Z,41.90
2022-11-08T00:35:19.143Z,38.70
2022-11-08T00:37:46.130Z,40.20
2022-11-08T00:40:13.281Z,39.13
2022-11-08T00:42:40.635Z,45.00
2022-11-08T00:45:08.081Z,45.10
2022-11-08T00:47:35.057Z,42.10
2022-11-08T00:50:02.051Z,40.08
2022-11-08T00:52:29.029Z,44.53
2022-11-08T00:54:55.994Z,43.20
2022-11-08T00:57:40.864Z,44.53
2022-11-08T01:00:10.597Z,39.80
2022-11-08T01:02:37.688Z,39.70
2022-11-08T01:05:05.066Z,45.17
2022-11-08T01:07:32.068Z,45.30
2022-11-08T01:09:59.087Z,39.42
2022-11-08T01:12:26.088Z,39.97
2022-11-08T01:14:54.376Z,39.13
2022-11-08T01:17:22.107Z,36.85
2022-11-08T01:19:50.673Z,40.75
2022-11-08T01:22:18.292Z,36.53
2022-11-08T01:24:46.910Z,42.40
2022-11-08T01:27:21.309Z,36.35
2022-11-08T01:30:22.038Z,36.92
2022-11-08T01:33:14.701Z,32.90
2022-11-08T01:36:19.712Z,33.83
2022-11-08T01:39:18.567Z,42.85
2022-11-08T01:42:41.591Z,41.53
2022-11-08T01:45:57.259Z,33.22
2022-11-08T01:52:03.603Z,33.13
2022-11-08T01:58:25.944Z,31.05
2022-11-08T02:01:06.129Z,24.88
2022-11-08T02:12:28.187Z,22.48
2022-11-08T02:14:56.179Z,23.15
2022-11-08T02:17:23.959Z,22.20
2022-11-08T02:19:52.441Z,26.35
2022-11-08T02:22:38.866Z,27.17
2022-11-08T02:25:06.967Z,32.58
2022-11-08T02:27:33.923Z,30.52
2022-11-08T02:30:00.994Z,34.10
2022-11-08T02:32:41.099Z,26.58
2022-11-08T02:35:19.732Z,30.52
2022-11-08T02:37:48.049Z,26.17
2022-11-08T02:40:15.075Z,27.83
2022-11-08T02:42:42.198Z,27.10
2022-11-08T02:45:09.733Z,27.80
2022-11-08T02:47:36.713Z,25.52
2022-11-08T02:50:04.109Z,26.85
2022-11-08T02:52:31.116Z,24.77
2022-11-08T02:54:58.106Z,26.10
2022-11-08T02:57:25.113Z,25.60
2022-11-08T02:59:52.148Z,23.00
2022-11-08T03:02:19.181Z,21.42
2022-11-08T03:04:50.423Z,24.40
2022-11-08T03:07:22.141Z,29.38
2022-11-08T03:09:51.599Z,28.13
2022-11-08T03:12:20.279Z,32.53
2022-11-08T03:14:47.278Z,31.17
2022-11-08T03:17:14.528Z,25.75
2022-11-08T03:19:41.540Z,23.98
2022-11-08T03:22:08.607Z,22.88
2022-11-08T03:24:35.612Z,23.85
2022-11-08T03:27:03.021Z,21.58
2022-11-08T03:29:30.004Z,22.58
2022-11-08T03:31:57.011Z,23.00
2022-11-08T03:34:23.973Z,20.27
2022-11-08T03:36:51.050Z,19.92
2022-11-08T03:39:18.121Z,18.20
2022-11-08T03:41:45.068Z,18.55
2022-11-08T03:44:12.012Z,17.48
2022-11-08T03:46:39.022Z,17.00
2022-11-08T03:49:05.996Z,16.95
2022-11-08T03:51:33.040Z,16.40
2022-11-08T03:54:00.076Z,14.60
2022-11-08T03:56:27.379Z,14.63
2022-11-08T03:58:54.381Z,16.02
2022-11-08T04:01:21.444Z,14.73
2022-11-08T04:03:48.436Z,14.13
2022-11-08T04:06:15.474Z,16.30
2022-11-08T04:08:42.491Z,15.95
2022-11-08T04:11:32.468Z,23.15
2022-11-08T04:14:25.786Z,20.92
2022-11-08T04:16:52.781Z,19.58
2022-11-08T04:19:38.223Z,20.48
2022-11-08T04:22:06.457Z,19.30
2022-11-08T04:24:33.560Z,21.05
2022-11-08T04:27:01.688Z,20.17
2022-11-08T04:29:29.162Z,20.98
2022-11-08T04:31:56.171Z,22.85
2022-11-08T04:34:23.311Z,23.02
2022-11-08T04:36:50.523Z,25.17
2022-11-08T04:39:17.646Z,23.13
2022-11-08T04:41:44.681Z,24.02
2022-11-08T04:44:11.955Z,27.98
2022-11-08T04:46:38.924Z,24.25
2022-11-08T04:49:05.943Z,22.23
2022-11-08T04:51:33.825Z,21.77
2022-11-08T04:54:02.737Z,25.27
2022-11-08T04:56:30.960Z,23.00
2022-11-08T04:58:59.829Z,24.85
2022-11-08T05:01:30.062Z,27.13
2022-11-08T05:03:58.449Z,22.88
2022-11-08T05:06:27.781Z,22.98
2022-11-08T05:08:56.520Z,23.83
2022-11-08T05:11:25.795Z,21.73
2022-11-08T05:13:53.160Z,22.98
2022-11-08T05:16:23.333Z,20.08
2022-11-08T05:18:51.662Z,19.90
2022-11-08T05:21:40.902Z,24.60
2022-11-08T05:24:11.435Z,21.73
2022-11-08T05:26:40.515Z,19.55
2022-11-08T05:29:07.507Z,22.05
2022-11-08T05:31:35.035Z,22.17
2022-11-08T05:34:02.253Z,24.42
2022-11-08T05:36:29.884Z,24.55
2022-11-08T05:38:57.236Z,20.63
2022-11-08T05:41:25.431Z,20.17
2022-11-08T05:43:54.328Z,21.10
2022-11-08T05:46:22.814Z,20.20
2022-11-08T05:48:50.323Z,21.80
2022-11-08T05:51:19.077Z,22.73
2022-11-08T05:53:47.352Z,25.13
2022-11-08T05:56:14.725Z,25.70
2022-11-08T05:58:47.848Z,23.02
2022-11-08T06:01:17.660Z,29.83
2022-11-08T06:03:45.553Z,23.63
2022-11-08T06:06:18.305Z,24.80
2022-11-08T06:08:50.025Z,23.40
2022-11-08T06:11:23.473Z,24.00
2022-11-08T06:13:50.993Z,18.33
2022-11-08T06:16:19.512Z,24.10
2022-11-08T06:18:47.299Z,20.70
2022-11-08T06:21:16.710Z,23.17
2022-11-08T06:23:43.865Z,24.10
2022-11-08T06:26:11.257Z,22.40
2022-11-08T06:28:38.579Z,21.98
2022-11-08T06:31:05.845Z,22.73
2022-11-08T06:33:33.462Z,22.65
2022-11-08T06:36:00.839Z,23.20
2022-11-08T06:38:27.890Z,23.63
2022-11-08T06:40:55.034Z,22.70
2022-11-08T06:43:22.407Z,24.08
2022-11-08T06:45:49.823Z,25.67
2022-11-08T06:48:16.873Z,29.05
2022-11-08T06:50:44.367Z,32.55
2022-11-08T06:53:13.545Z,32.45
2022-11-08T06:55:41.290Z,30.98
2022-11-08T06:58:08.307Z,35.80
2022-11-08T07:00:35.390Z,29.40
2022-11-08T07:03:04.036Z,30.63
2022-11-08T07:05:33.057Z,29.25
2022-11-08T07:08:00.979Z,27.02
2022-11-08T07:10:30.812Z,28.33
2022-11-08T07:13:10.078Z,34.30
2022-11-08T07:15:37.798Z,31.25
2022-11-08T07:18:07.507Z,32.88
2022-11-08T07:20:35.280Z,34.92
2022-11-08T07:23:02.609Z,38.83
2022-11-08T07:25:30.720Z,38.30
2022-11-08T07:28:00.040Z,32.00
2022-11-08T07:30:28.353Z,33.45
2022-11-08T07:32:56.388Z,27.88
2022-11-08T07:35:23.898Z,30.55
2022-11-08T07:37:51.209Z,31.17
2022-11-08T07:40:18.365Z,40.80
2022-11-08T07:43:10.035Z,34.90
2022-11-08T07:45:33.032Z,40.28
2022-11-08T07:48:04.302Z,39.08
2022-11-08T07:50:34.086Z,31.80
2022-11-08T07:53:01.049Z,39.92
2022-11-08T07:55:28.219Z,42.88
2022-11-08T07:58:02.563Z,42.80
2022-11-08T08:00:36.594Z,38.58
2022-11-08T08:03:05.509Z,39.78
2022-11-08T08:05:36.311Z,41.67
2022-11-08T08:08:04.018Z,35.97
2022-11-08T08:10:31.785Z,35.58
2022-11-08T08:12:58.792Z,33.95
2022-11-08T08:15:26.174Z,31.83
2022-11-08T08:17:53.283Z,26.00
2022-11-08T08:20:20.264Z,31.80
2022-11-08T08:22:49.058Z,31.67
2022-11-08T08:25:17.083Z,29.45
2022-11-08T08:27:52.072Z,35.42
2022-11-08T08:30:19.974Z,35.60
2022-11-08T08:32:57.688Z,44.80
2022-11-08T08:35:36.471Z,35.92
2022-11-08T08:38:04.713Z,47.85
2022-11-08T08:40:32.553Z,53.65
2022-11-08T08:43:01.209Z,61.47
2022-11-08T08:45:29.134Z,45.35
2022-11-08T08:47:57.643Z,44.90
2022-11-08T08:50:26.124Z,45.03
2022-11-08T08:52:57.259Z,44.92
2022-11-08T08:55:24.273Z,42.78
2022-11-08T08:57:51.265Z,47.55
2022-11-08T09:03:07.799Z,51.92
2022-11-08T09:05:35.548Z,50.75
2022-11-08T09:08:02.532Z,56.95
2022-11-08T09:10:29.954Z,50.28
2022-11-08T09:12:56.959Z,35.67
2022-11-08T09:15:24.016Z,39.03
2022-11-08T09:17:54.540Z,22.55
2022-11-08T09:20:22.065Z,23.25
2022-11-08T09:22:49.343Z,23.48
2022-11-08T09:25:16.343Z,21.80
2022-11-08T09:27:43.330Z,27.75
2022-11-08T09:30:10.760Z,32.95
2022-11-08T09:35:25.657Z,37.47
2022-11-08T09:37:55.907Z,40.22
2022-11-08T09:40:31.763Z,36.15
2022-11-08T09:43:26.240Z,35.65
2022-11-08T09:45:56.144Z,41.50
2022-11-08T09:48:26.840Z,33.92
2022-11-08T09:50:55.252Z,31.58
2022-11-08T09:53:52.661Z,32.90
2022-11-08T09:56:27.884Z,32.50
2022-11-08T09:59:08.694Z,30.08
2022-11-08T10:01:37.379Z,30.02
2022-11-08T10:04:15.218Z,22.33
2022-11-08T10:07:08.344Z,27.17
2022-11-08T10:09:47.344Z,31.58
2022-11-08T10:12:35.145Z,33.45
2022-11-08T10:15:07.668Z,35.03
2022-11-08T10:18:03.961Z,21.65
2022-11-08T10:20:52.885Z,26.13
2022-11-08T10:23:21.715Z,22.70
2022-11-08T10:26:27.262Z,22.88
2022-11-08T10:29:07.704Z,26.65
2022-11-08T10:31:38.390Z,24.83
2022-11-08T10:34:15.103Z,37.53
2022-11-08T10:36:46.110Z,27.45
2022-11-08T10:39:26.226Z,25.67
2022-11-08T10:42:16.567Z,28.20
2022-11-08T10:44:44.255Z,14.73
2022-11-08T10:47:23.565Z,16.92
2022-11-08T10:49:50.783Z,16.55
2022-11-08T10:52:21.024Z,17.30
2022-11-08T10:54:59.112Z,16.13
2022-11-08T10:57:31.973Z,18.08
2022-11-08T11:02:46.638Z,16.25
2022-11-08T11:05:16.685Z,15.57
2022-11-08T11:07:57.643Z,18.23
2022-11-08T11:10:30.853Z,16.17
2022-11-08T11:13:12.146Z,14.43
2022-11-08T11:15:58.686Z,14.30
2022-11-08T11:18:37.909Z,14.10
2022-11-08T11:21:04.926Z,18.95
2022-11-08T11:23:39.921Z,14.23
2022-11-08T11:26:16.787Z,17.55
2022-11-08T11:29:08.468Z,19.25
2022-11-08T11:31:36.752Z,16.42
2022-11-08T11:34:24.687Z,16.83
2022-11-08T11:37:10.803Z,17.27
2022-11-08T11:39:49.656Z,13.93
2022-11-08T11:45:28.207Z,17.02
2022-11-08T11:48:02.679Z,14.13
2022-11-08T11:50:34.514Z,13.43
2022-11-08T11:53:05.850Z,12.70
2022-11-08T11:56:05.041Z,13.15
2022-11-08T11:58:38.067Z,14.65
2022-11-08T12:01:26.208Z,11.77
2022-11-08T12:04:21.834Z,16.13
2022-11-08T12:07:07.472Z,13.45
2022-11-08T12:09:55.669Z,15.32
2022-11-08T12:13:00.008Z,12.85
2022-11-08T12:16:07.510Z,13.23
2022-11-08T12:18:53.634Z,14.98
2022-11-08T12:21:23.659Z,11.88
2022-11-08T12:24:28.020Z,13.88
2022-11-08T12:26:55.557Z,12.68
2022-11-08T12:29:43.935Z,11.35
2022-11-08T12:32:10.948Z,13.02
2022-11-08T12:35:21.096Z,10.00
2022-11-08T12:38:05.890Z,13.52
2022-11-08T12:40:57.800Z,16.13
2022-11-08T12:43:45.462Z,13.65
2022-11-08T12:46:18.675Z,17.90
2022-11-08T12:49:00.753Z,17.80
2022-11-08T12:51:27.726Z,17.95
2022-11-08T12:54:14.836Z,17.05
2022-11-08T12:56:45.482Z,16.98
2022-11-08T12:59:28.186Z,20.98
2022-11-08T13:01:56.793Z,18.48
2022-11-08T13:04:26.640Z,19.65
2022-11-08T13:07:07.211Z,15.55
2022-11-08T13:10:09.828Z,19.90
2022-11-08T13:12:45.138Z,15.48
2022-11-08T13:18:19.538Z,20.13
2022-11-08T13:20:48.623Z,18.17
2022-11-08T13:23:41.886Z,18.13
2022-11-08T13:28:45.155Z,17.10
2022-11-08T13:31:23.551Z,19.42
2022-11-08T13:34:18.015Z,18.58
2022-11-08T13:36:54.423Z,19.15
2022-11-08T13:39:56.497Z,18.08
2022-11-08T13:42:23.417Z,21.02
2022-11-08T13:44:56.482Z,19.65
2022-11-08T13:47:32.539Z,20.30
2022-11-08T13:50:34.050Z,23.00
2022-11-08T13:53:19.098Z,19.02
2022-11-08T13:56:04.902Z,20.05
2022-11-08T13:58:39.167Z,21.90
2022-11-08T14:01:38.404Z,31.42
2022-11-08T14:04:34.954Z,32.78
2022-11-08T14:07:12.015Z,31.65
2022-11-08T14:09:41.857Z,35.63
2022-11-08T14:12:42.257Z,34.25
2022-11-08T14:15:50.761Z,43.80
2022-11-08T14:18:35.117Z,36.60
2022-11-08T14:21:05.377Z,37.05
2022-11-08T14:23:41.476Z,37.47
2022-11-08T14:26:20.440Z,38.45
2022-11-08T14:28:49.317Z,36.45
2022-11-08T14:31:30.610Z,35.85
2022-11-08T14:33:59.574Z,35.55
2022-11-08T14:36:28.633Z,40.58
2022-11-08T14:39:16.365Z,35.38
2022-11-08T14:41:48.470Z,34.70
2022-11-08T14:44:19.027Z,41.67
2022-11-08T14:46:47.855Z,43.53
2022-11-08T14:49:15.764Z,44.42
2022-11-08T14:51:43.798Z,43.22
2022-11-08T14:54:27.251Z,42.97
2022-11-08T14:56:56.061Z,39.00
2022-11-08T14:59:24.932Z,44.75
2022-11-08T15:01:52.266Z,40.42
2022-11-08T15:04:22.338Z,38.70
2022-11-08T15:06:53.208Z,42.30
2022-11-08T15:09:35.311Z,46.30
2022-11-08T15:12:05.692Z,42.47
2022-11-08T15:14:36.107Z,46.42
2022-11-08T15:17:03.807Z,51.20
2022-11-08T15:19:46.455Z,54.50
2022-11-08T15:22:30.439Z,54.78
2022-11-08T15:25:33.019Z,54.20
2022-11-08T15:28:15.769Z,53.97
2022-11-08T15:33:32.488Z,50.55
2022-11-08T15:36:00.105Z,60.63
2022-11-08T15:38:42.726Z,53.05
2022-11-08T15:41:36.927Z,59.70
2022-11-08T15:44:24.166Z,60.25
2022-11-08T15:46:53.253Z,56.03
2022-11-08T15:49:26.227Z,52.50
2022-11-08T15:54:23.178Z,52.22
2022-11-08T15:56:52.634Z,53.63
2022-11-08T15:59:30.468Z,53.25
2022-11-08T16:01:59.877Z,60.90
2022-11-08T16:04:28.977Z,62.70
2022-11-08T16:06:57.037Z,84.53
2022-11-08T16:09:24.224Z,83.97
2022-11-08T16:11:51.601Z,80.28
2022-11-08T16:14:22.870Z,90.80
2022-11-08T16:16:50.313Z,89.22
2022-11-08T16:19:20.029Z,75.53
2022-11-08T16:21:47.519Z,82.05
2022-11-08T16:24:14.640Z,82.32
2022-11-08T16:26:43.095Z,68.60
2022-11-08T16:29:31.545Z,74.50
2022-11-08T16:31:58.544Z,67.25
2022-11-08T16:34:25.552Z,77.70
2022-11-08T16:36:54.757Z,81.35
2022-11-08T16:39:26.923Z,79.05
2022-11-08T16:41:54.168Z,81.72
2022-11-08T16:44:21.223Z,86.00
2022-11-08T16:46:48.262Z,86.47
2022-11-08T16:49:24.290Z,86.00
2022-11-08T16:51:51.270Z,79.43
2022-11-08T16:54:20.715Z,85.93
2022-11-08T16:56:47.837Z,85.38
2022-11-08T16:59:15.731Z,80.40
2022-11-08T17:01:44.137Z,80.40
2022-11-08T17:04:11.360Z,102.38
2022-11-08T17:06:38.408Z,117.35
2022-11-08T17:09:05.824Z,97.28
2022-11-08T17:11:32.995Z,98.70
2022-11-08T17:13:59.986Z,96.10
2022-11-08T17:16:27.449Z,95.32
2022-11-08T17:18:54.537Z,88.05
2022-11-08T17:21:43.662Z,83.32
2022-11-08T17:24:09.669Z,80.13
2022-11-08T17:26:36.672Z,73.18
2022-11-08T17:29:03.790Z,64.32
2022-11-08T17:31:30.812Z,66.57
2022-11-08T17:33:57.784Z,66.10
2022-11-08T17:39:08.880Z,63.08
2022-11-08T17:41:36.103Z,64.70
2022-11-08T17:44:03.116Z,68.18
2022-11-08T17:46:30.154Z,66.95
2022-11-08T17:48:57.172Z,62.55
2022-11-08T17:51:24.408Z,65.90
2022-11-08T17:53:51.740Z,70.18
2022-11-08T17:56:19.524Z,67.47
2022-11-08T17:58:46.605Z,67.53
2022-11-08T18:01:14.349Z,73.78
2022-11-08T18:03:41.774Z,68.72
2022-11-08T18:06:12.114Z,72.38
2022-11-08T18:08:39.736Z,71.43
2022-11-08T18:11:07.158Z,72.38
2022-11-08T18:13:37.806Z,69.82
2022-11-08T18:16:12.401Z,58.60
2022-11-08T18:18:40.031Z,59.50
2022-11-08T18:21:07.945Z,64.03
2022-11-08T18:23:35.254Z,69.15
2022-11-08T18:26:02.670Z,70.57
2022-11-08T18:28:29.719Z,88.35
2022-11-08T18:31:02.958Z,82.15
2022-11-08T18:33:29.955Z,75.28
2022-11-08T18:35:56.940Z,73.75
2022-11-08T18:38:23.946Z,67.75
2022-11-08T18:40:50.937Z,72.32
2022-11-08T18:43:18.296Z,89.32
2022-11-08T18:45:45.714Z,96.15
2022-11-08T18:48:12.792Z,127.25
2022-11-08T18:50:39.781Z,113.18
2022-11-08T18:53:08.830Z,109.57
2022-11-08T18:55:36.257Z,107.93
2022-11-08T18:58:03.903Z,108.72
2022-11-08T19:00:30.981Z,100.60
2022-11-08T19:02:58.018Z,97.70
2022-11-08T19:05:25.101Z,91.07
2022-11-08T19:07:52.311Z,80.90
2022-11-08T19:10:19.812Z,72.03
2022-11-08T19:12:46.784Z,74.07
2022-11-08T19:15:14.680Z,70.05
2022-11-08T19:17:42.822Z,69.95
2022-11-08T19:20:10.375Z,65.00
2022-11-08T19:22:37.406Z,66.40
2022-11-08T19:25:04.728Z,67.18
2022-11-08T19:27:31.918Z,67.15
2022-11-08T19:30:00.650Z,66.80
2022-11-08T19:32:27.669Z,79.93
2022-11-08T19:34:54.681Z,79.25
2022-11-08T19:37:21.693Z,86.63
2022-11-08T19:39:49.084Z,94.25
2022-11-08T19:42:16.092Z,91.65
2022-11-08T19:44:43.144Z,81.53
2022-11-08T19:47:10.159Z,76.90
2022-11-08T19:49:41.009Z,82.47
2022-11-08T19:52:08.252Z,91.57
2022-11-08T19:54:35.559Z,97.13
2022-11-08T19:57:04.586Z,88.28
2022-11-08T19:59:32.427Z,78.68
2022-11-08T20:02:00.126Z,75.15
2022-11-08T20:04:27.424Z,75.20
2022-11-08T20:06:54.564Z,67.45
2022-11-08T20:09:25.952Z,70.22
2022-11-08T20:11:56.210Z,67.82
2022-11-08T20:14:23.700Z,61.25
2022-11-08T20:16:53.524Z,56.58
2022-11-08T20:19:21.220Z,65.13
2022-11-08T20:21:48.490Z,62.30
2022-11-08T20:24:16.651Z,66.50
2022-11-08T20:26:44.372Z,69.63
2022-11-08T20:29:11.977Z,71.05
2022-11-08T20:31:39.481Z,70.57
2022-11-08T20:34:11.879Z,80.97
2022-11-08T20:36:41.085Z,74.78
2022-11-08T20:39:08.367Z,75.78
2022-11-08T20:41:37.904Z,75.72
2022-11-08T20:44:06.477Z,66.03
2022-11-08T20:46:34.678Z,66.30
2022-11-08T20:49:02.586Z,64.28
2022-11-08T20:51:30.857Z,57.92
2022-11-08T20:54:00.591Z,62.53
2022-11-08T20:56:28.261Z,56.15
2022-11-08T20:59:02.832Z,54.88
2022-11-08T21:01:32.877Z,52.70
2022-11-08T21:04:01.255Z,49.25
2022-11-08T21:06:32.963Z,51.90
2022-11-08T21:09:14.381Z,51.55
2022-11-08T21:11:49.645Z,53.05
2022-11-08T21:14:16.841Z,53.80
2022-11-08T21:17:14.565Z,61.28
2022-11-08T21:19:30.950Z,63.20
2022-11-08T21:22:15.223Z,70.78
2022-11-08T21:24:43.636Z,68.55
2022-11-08T21:27:11.255Z,71.90
2022-11-08T21:29:38.961Z,66.93
2022-11-08T21:32:06.440Z,59.75
2022-11-08T21:34:33.554Z,63.85
2022-11-08T21:37:00.816Z,59.78
2022-11-08T21:39:27.921Z,55.70
2022-11-08T21:41:54.918Z,53.05
2022-11-08T21:44:22.054Z,53.85
2022-11-08T21:46:49.356Z,55.50
2022-11-08T21:49:16.383Z,57.15
2022-11-08T21:51:43.445Z,67.95
2022-11-08T21:54:10.546Z,69.07
2022-11-08T21:56:38.966Z,81.50
2022-11-08T21:59:06.225Z,59.65
2022-11-08T22:01:33.746Z,69.38
2022-11-08T22:04:00.844Z,62.15
2022-11-08T22:06:29.681Z,57.40
2022-11-08T22:08:56.863Z,57.83
2022-11-08T22:11:24.155Z,71.13
2022-11-08T22:13:51.277Z,72.18
2022-11-08T22:16:18.465Z,70.43
2022-11-08T22:21:39.507Z,59.17
2022-11-08T22:24:17.307Z,55.05
2022-11-08T22:26:44.781Z,63.45
2022-11-08T22:29:11.877Z,57.67
2022-11-08T22:31:39.241Z,57.97
2022-11-08T22:34:08.670Z,47.22
2022-11-08T22:36:41.469Z,46.85
2022-11-08T22:39:12.874Z,47.95
2022-11-08T22:41:39.930Z,47.20
2022-11-08T22:44:11.662Z,38.63
2022-11-08T22:46:39.893Z,46.40
2022-11-08T22:49:07.059Z,46.65
2022-11-08T22:51:34.071Z,35.90
2022-11-08T22:54:04.171Z,43.50
2022-11-08T22:56:37.901Z,47.53
2022-11-08T22:59:05.283Z,42.70
2022-11-08T23:01:32.601Z,45.00
2022-11-08T23:04:03.316Z,43.83
2022-11-08T23:06:30.818Z,44.95
2022-11-08T23:08:57.978Z,50.10
2022-11-08T23:11:43.807Z,51.92
2022-11-08T23:14:37.375Z,68.95
2022-11-08T23:17:07.613Z,115.30
2022-11-08T23:19:53.453Z,112.93
2022-11-08T23:22:39.782Z,123.78
2022-11-08T23:25:07.269Z,116.63
2022-11-08T23:27:52.895Z,107.63
2022-11-08T23:30:38.614Z,95.75
2022-11-08T23:33:09.521Z,104.53
2022-11-08T23:35:36.620Z,89.88
2022-11-08T23:38:03.767Z,66.03
2022-11-08T23:40:49.127Z,67.13
2022-11-08T23:43:37.221Z,72.90
2022-11-08T23:46:10.149Z,47.75
2022-11-08T23:48:38.552Z,37.03
2022-11-08T23:51:06.146Z,81.05
2022-11-08T23:53:37.123Z,81.53
2022-11-08T23:56:05.042Z,93.57
2022-11-08T23:58:32.644Z,99.55
